createdAt,value
2023-03-16T00:01:38.159Z,63.93
2023-03-16T00:04:41.261Z,63.90
2023-03-16T00:07:44.409Z,63.90
2023-03-16T00:10:48.060Z,63.88
2023-03-16T00:13:51.639Z,63.96
2023-03-16T00:16:54.765Z,64.00
2023-03-16T00:19:58.030Z,63.97
2023-03-16T00:23:02.723Z,63.98
2023-03-16T00:26:08.218Z,64.01
2023-03-16T00:29:12.027Z,64.07
2023-03-16T00:32:20.800Z,64.02
2023-03-16T00:35:25.509Z,64.04
2023-03-16T00:38:31.265Z,64.07
2023-03-16T00:41:38.138Z,64.07
2023-03-16T00:44:42.138Z,64.07
2023-03-16T00:47:45.322Z,64.07
2023-03-16T00:50:49.511Z,64.13
2023-03-16T00:53:52.671Z,64.09
2023-03-16T00:56:56.301Z,64.09
2023-03-16T01:00:00.184Z,63.98
2023-03-16T01:03:03.557Z,64.01
2023-03-16T01:06:12.898Z,64.07
2023-03-16T01:09:16.074Z,64.16
2023-03-16T01:12:20.186Z,64.21
2023-03-16T01:15:23.230Z,64.26
2023-03-16T01:18:27.850Z,64.27
2023-03-16T01:21:33.725Z,64.36
2023-03-16T01:24:37.790Z,64.43
2023-03-16T01:27:43.116Z,64.37
2023-03-16T01:30:46.267Z,64.30
2023-03-16T01:33:51.318Z,64.28
2023-03-16T01:36:57.926Z,64.30
2023-03-16T01:40:06.876Z,64.23
2023-03-16T01:43:11.669Z,64.22
2023-03-16T01:46:24.056Z,64.20
2023-03-16T01:49:33.506Z,64.25
2023-03-16T01:52:38.685Z,64.34
2023-03-16T01:55:42.631Z,64.33
2023-03-16T01:58:46.980Z,64.37
2023-03-16T02:01:52.036Z,64.42
2023-03-16T02:05:02.115Z,64.50
2023-03-16T02:08:06.690Z,64.57
2023-03-16T02:11:10.385Z,64.51
2023-03-16T02:14:21.469Z,64.46
2023-03-16T02:17:27.887Z,64.50
2023-03-16T02:20:42.657Z,64.54
2023-03-16T02:23:47.097Z,64.51
2023-03-16T02:26:57.660Z,64.51
2023-03-16T02:30:08.354Z,64.50
2023-03-16T02:33:21.323Z,64.52
2023-03-16T02:36:24.850Z,64.49
2023-03-16T02:39:28.321Z,64.50
2023-03-16T02:42:31.847Z,64.52
2023-03-16T02:45:55.059Z,64.48
2023-03-16T02:49:17.828Z,64.47
2023-03-16T02:52:21.633Z,64.51
2023-03-16T02:55:24.807Z,64.54
2023-03-16T02:58:29.772Z,64.57
2023-03-16T03:01:34.946Z,64.58
2023-03-16T03:04:38.302Z,64.61
2023-03-16T03:07:42.751Z,64.62
2023-03-16T03:10:46.266Z,64.66
2023-03-16T03:13:49.772Z,64.64
2023-03-16T03:16:56.036Z,64.61
2023-03-16T03:20:02.409Z,64.64
2023-03-16T03:23:05.671Z,64.71
2023-03-16T03:26:08.774Z,64.75
2023-03-16T03:29:12.646Z,64.77
2023-03-16T03:32:16.558Z,64.81
2023-03-16T03:35:21.372Z,64.87
2023-03-16T03:38:25.914Z,64.88
2023-03-16T03:41:30.601Z,64.89
2023-03-16T03:44:37.143Z,64.88
2023-03-16T03:47:41.477Z,64.85
2023-03-16T03:50:46.170Z,64.81
2023-03-16T03:53:59.942Z,64.85
2023-03-16T03:57:21.948Z,64.87
2023-03-16T04:00:25.892Z,64.98
2023-03-16T04:03:29.326Z,65.07
2023-03-16T04:06:32.588Z,65.16
2023-03-16T04:09:36.214Z,65.25
2023-03-16T04:12:39.522Z,65.29
2023-03-16T04:15:47.022Z,65.25
2023-03-16T04:18:57.878Z,65.26
2023-03-16T04:22:01.628Z,65.34
2023-03-16T04:25:05.285Z,65.37
2023-03-16T04:28:09.022Z,65.47
2023-03-16T04:31:14.234Z,65.47
2023-03-16T04:34:24.930Z,65.46
2023-03-16T04:37:29.977Z,65.46
2023-03-16T04:40:33.159Z,65.43
2023-03-16T04:43:40.942Z,65.40
2023-03-16T04:46:53.763Z,65.43
2023-03-16T04:49:57.440Z,65.45
2023-03-16T04:53:02.187Z,65.44
2023-03-16T04:56:07.518Z,65.52
2023-03-16T04:59:11.950Z,65.49
2023-03-16T05:02:22.467Z,65.45
2023-03-16T05:05:26.048Z,65.49
2023-03-16T05:08:29.194Z,65.53
2023-03-16T05:11:32.337Z,65.56
2023-03-16T05:14:36.358Z,65.57
2023-03-16T05:17:57.923Z,65.59
2023-03-16T05:21:01.984Z,65.63
2023-03-16T05:24:12.499Z,65.69
2023-03-16T05:27:16.041Z,65.78
2023-03-16T05:30:20.152Z,65.84
2023-03-16T05:33:23.625Z,65.92
2023-03-16T05:36:31.386Z,66.07
2023-03-16T05:39:41.166Z,66.22
2023-03-16T05:42:49.379Z,66.29
2023-03-16T05:45:53.174Z,66.42
2023-03-16T05:48:56.585Z,66.56
2023-03-16T05:52:00.512Z,66.60
2023-03-16T05:55:05.958Z,66.84
2023-03-16T05:58:09.256Z,67.19
2023-03-16T06:01:13.524Z,67.52
2023-03-16T06:04:17.999Z,67.77
2023-03-16T06:07:21.358Z,67.94
2023-03-16T06:10:26.840Z,68.08
2023-03-16T06:13:30.817Z,68.19
2023-03-16T06:16:34.173Z,68.31
2023-03-16T06:19:37.621Z,68.49
2023-03-16T06:22:42.497Z,68.60
2023-03-16T06:25:50.244Z,68.77
2023-03-16T06:28:54.629Z,68.79
2023-03-16T06:31:58.208Z,68.85
2023-03-16T06:35:03.555Z,68.92
2023-03-16T06:38:07.388Z,69.02
2023-03-16T06:41:42.910Z,69.04
2023-03-16T06:44:47.899Z,69.11
2023-03-16T06:47:51.610Z,69.12
2023-03-16T06:50:55.241Z,69.18
2023-03-16T06:54:01.533Z,69.11
2023-03-16T06:57:05.832Z,69.15
2023-03-16T07:00:15.471Z,69.18
2023-03-16T07:03:19.474Z,69.15
2023-03-16T07:06:27.607Z,69.12
2023-03-16T07:09:31.685Z,69.15
2023-03-16T07:12:35.089Z,69.28
2023-03-16T07:15:38.415Z,69.31
2023-03-16T07:18:44.475Z,69.32
2023-03-16T07:21:49.481Z,69.29
2023-03-16T07:24:57.521Z,69.42
2023-03-16T07:28:01.947Z,69.40
2023-03-16T07:31:09.577Z,69.34
2023-03-16T07:34:15.186Z,69.31
2023-03-16T07:37:25.481Z,69.32
2023-03-16T07:40:30.973Z,69.21
2023-03-16T07:43:40.527Z,69.12
2023-03-16T07:46:45.819Z,69.01
2023-03-16T07:49:48.946Z,68.82
2023-03-16T07:52:52.329Z,68.76
2023-03-16T07:55:55.688Z,68.87
2023-03-16T07:58:58.879Z,68.87
2023-03-16T08:02:02.282Z,68.85
2023-03-16T08:05:06.121Z,68.75
2023-03-16T08:08:10.210Z,68.69
2023-03-16T08:11:14.796Z,68.44
2023-03-16T08:14:24.211Z,68.32
2023-03-16T08:17:37.813Z,68.22
2023-03-16T08:20:42.412Z,68.08
2023-03-16T08:23:49.200Z,67.94
2023-03-16T08:26:53.442Z,67.79
2023-03-16T08:29:56.726Z,67.60
2023-03-16T08:33:03.373Z,67.49
2023-03-16T08:36:08.716Z,67.62
2023-03-16T08:39:12.227Z,67.52
2023-03-16T08:42:20.358Z,67.28
2023-03-16T08:45:28.718Z,67.05
2023-03-16T08:48:34.723Z,66.53
2023-03-16T08:51:38.067Z,66.07
2023-03-16T08:54:49.776Z,65.84
2023-03-16T08:58:00.085Z,65.89
2023-03-16T09:01:05.836Z,65.87
2023-03-16T09:04:09.676Z,65.79
2023-03-16T09:07:13.632Z,65.47
2023-03-16T09:10:17.469Z,65.17
2023-03-16T09:13:20.703Z,64.97
2023-03-16T09:16:25.917Z,64.94
2023-03-16T09:19:34.836Z,64.61
2023-03-16T09:22:44.213Z,64.79
2023-03-16T09:25:48.201Z,64.80
2023-03-16T09:28:51.581Z,64.94
2023-03-16T09:31:54.957Z,65.05
2023-03-16T09:34:58.248Z,65.10
2023-03-16T09:38:05.938Z,65.14
2023-03-16T09:41:25.375Z,65.19
2023-03-16T09:44:50.562Z,65.04
2023-03-16T09:47:58.272Z,64.63
2023-03-16T09:51:05.605Z,64.45
2023-03-16T09:54:29.489Z,64.55
2023-03-16T09:57:36.868Z,64.49
2023-03-16T10:01:00.860Z,63.75
2023-03-16T10:04:07.649Z,63.18
2023-03-16T10:07:11.449Z,62.59
2023-03-16T10:10:18.406Z,62.31
2023-03-16T10:13:40.450Z,61.99
2023-03-16T10:17:01.614Z,61.84
2023-03-16T10:20:18.717Z,61.77
2023-03-16T10:23:24.760Z,60.96
2023-03-16T10:26:39.237Z,60.71
2023-03-16T10:29:42.304Z,60.51
2023-03-16T10:32:46.112Z,60.17
2023-03-16T10:36:05.757Z,59.66
2023-03-16T10:39:12.582Z,59.37
2023-03-16T10:42:18.631Z,59.24
2023-03-16T10:45:34.483Z,59.08
2023-03-16T10:48:39.164Z,58.42
2023-03-16T10:51:44.342Z,57.89
2023-03-16T10:55:00.001Z,57.50
2023-03-16T10:58:04.282Z,57.00
2023-03-16T11:01:21.775Z,57.22
2023-03-16T11:04:25.714Z,57.57
2023-03-16T11:07:28.910Z,57.78
2023-03-16T11:10:46.089Z,57.99
2023-03-16T11:14:00.173Z,58.30
2023-03-16T11:17:10.839Z,58.46
2023-03-16T11:20:24.030Z,58.47
2023-03-16T11:23:34.375Z,56.91
2023-03-16T11:26:42.999Z,56.44
2023-03-16T11:29:59.608Z,55.70
2023-03-16T11:33:04.213Z,54.68
2023-03-16T11:36:31.716Z,52.84
2023-03-16T11:39:42.978Z,51.98
2023-03-16T11:42:49.137Z,51.70
2023-03-16T11:46:02.858Z,50.99
2023-03-16T11:49:12.189Z,50.67
2023-03-16T11:52:33.440Z,50.30
2023-03-16T11:56:09.318Z,50.00
2023-03-16T11:59:31.081Z,49.48
2023-03-16T12:02:57.392Z,49.69
2023-03-16T12:06:16.876Z,50.33
2023-03-16T12:09:39.456Z,50.84
2023-03-16T12:12:56.131Z,50.97
2023-03-16T12:16:20.044Z,51.43
2023-03-16T12:19:32.264Z,51.10
2023-03-16T12:22:42.250Z,51.06
2023-03-16T12:25:47.742Z,50.72
2023-03-16T12:28:53.174Z,49.93
2023-03-16T12:32:09.888Z,49.06
2023-03-16T12:35:34.151Z,48.87
2023-03-16T12:38:54.363Z,48.70
2023-03-16T12:42:06.320Z,49.06
2023-03-16T12:45:28.342Z,48.90
2023-03-16T12:48:37.580Z,48.42
2023-03-16T12:51:43.531Z,47.67
2023-03-16T12:54:52.177Z,46.96
2023-03-16T12:58:02.241Z,46.30
2023-03-16T13:01:11.365Z,45.86
2023-03-16T13:04:21.577Z,45.92
2023-03-16T13:07:28.479Z,46.19
2023-03-16T13:10:31.732Z,45.91
2023-03-16T13:13:36.392Z,45.85
2023-03-16T13:16:41.033Z,45.80
2023-03-16T13:19:57.784Z,46.29
2023-03-16T13:23:22.462Z,46.50
2023-03-16T13:26:28.358Z,46.21
2023-03-16T13:29:33.506Z,46.22
2023-03-16T13:32:38.839Z,46.02
2023-03-16T13:35:42.235Z,45.84
2023-03-16T13:38:58.640Z,45.85
2023-03-16T13:42:12.816Z,45.59
2023-03-16T13:45:21.344Z,45.32
2023-03-16T13:48:25.211Z,45.45
2023-03-16T13:51:33.232Z,45.36
2023-03-16T13:54:37.345Z,45.28
2023-03-16T13:57:44.132Z,45.22
2023-03-16T14:00:47.296Z,45.32
2023-03-16T14:03:51.134Z,45.06
2023-03-16T14:07:03.889Z,44.45
2023-03-16T14:10:12.312Z,43.99
2023-03-16T14:13:33.013Z,43.66
2023-03-16T14:16:36.335Z,43.98
2023-03-16T14:19:46.724Z,43.14
2023-03-16T14:22:54.053Z,42.89
2023-03-16T14:25:57.429Z,43.10
2023-03-16T14:29:18.480Z,43.38
2023-03-16T14:32:30.392Z,43.38
2023-03-16T14:35:41.411Z,43.48
2023-03-16T14:38:48.866Z,43.44
2023-03-16T14:41:52.443Z,43.41
2023-03-16T14:45:00.510Z,43.39
2023-03-16T14:48:08.733Z,43.54
2023-03-16T14:51:14.741Z,43.63
2023-03-16T14:54:21.867Z,43.85
2023-03-16T14:57:28.751Z,43.86
2023-03-16T15:00:37.175Z,44.05
2023-03-16T15:03:46.649Z,44.20
2023-03-16T15:06:50.076Z,44.08
2023-03-16T15:09:55.375Z,44.03
2023-03-16T15:13:06.162Z,44.11
2023-03-16T15:16:14.207Z,44.21
2023-03-16T15:19:17.436Z,44.36
2023-03-16T15:22:39.355Z,44.03
2023-03-16T15:25:48.232Z,44.17
2023-03-16T15:28:51.249Z,44.39
2023-03-16T15:31:54.750Z,44.17
2023-03-16T15:34:58.312Z,44.20
2023-03-16T15:38:05.072Z,44.06
2023-03-16T15:41:11.733Z,43.61
2023-03-16T15:44:14.958Z,43.74
2023-03-16T15:47:17.998Z,43.34
2023-03-16T15:50:24.816Z,43.44
2023-03-16T15:53:40.077Z,43.72
2023-03-16T15:56:53.824Z,43.76
2023-03-16T16:00:00.214Z,44.07
2023-03-16T16:03:05.496Z,43.91
2023-03-16T16:06:11.781Z,43.79
2023-03-16T16:09:15.788Z,44.10
2023-03-16T16:12:21.432Z,44.21
2023-03-16T16:15:38.326Z,44.23
2023-03-16T16:18:41.889Z,44.22
2023-03-16T16:21:46.443Z,44.26
2023-03-16T16:24:49.377Z,44.26
2023-03-16T16:27:52.395Z,44.21
2023-03-16T16:30:56.815Z,44.56
2023-03-16T16:33:59.984Z,44.79
2023-03-16T16:37:03.073Z,45.25
2023-03-16T16:40:06.631Z,46.46
2023-03-16T16:43:14.239Z,47.26
2023-03-16T16:46:24.050Z,47.53
2023-03-16T16:49:30.653Z,47.55
2023-03-16T16:52:33.699Z,48.23
2023-03-16T16:55:36.747Z,48.33
2023-03-16T16:58:40.692Z,48.79
2023-03-16T17:01:47.410Z,48.89
2023-03-16T17:04:53.715Z,49.10
2023-03-16T17:07:56.728Z,49.19
2023-03-16T17:11:00.092Z,49.20
2023-03-16T17:14:05.987Z,49.21
2023-03-16T17:17:17.568Z,49.23
2023-03-16T17:20:25.461Z,49.59
2023-03-16T17:23:35.121Z,49.66
2023-03-16T17:26:43.889Z,49.86
2023-03-16T17:29:46.969Z,50.27
2023-03-16T17:32:52.050Z,50.61
2023-03-16T17:35:55.243Z,50.84
2023-03-16T17:39:00.212Z,50.87
2023-03-16T17:42:13.791Z,51.00
2023-03-16T17:45:24.200Z,51.34
2023-03-16T17:48:27.186Z,51.19
2023-03-16T17:51:32.345Z,51.35
2023-03-16T17:54:35.337Z,51.58
2023-03-16T17:57:38.684Z,51.86
2023-03-16T18:00:42.452Z,52.11
2023-03-16T18:03:46.185Z,52.25
2023-03-16T18:06:49.724Z,52.42
2023-03-16T18:09:53.163Z,52.61
2023-03-16T18:13:00.792Z,53.01
2023-03-16T18:16:06.151Z,53.24
2023-03-16T18:19:21.546Z,53.43
2023-03-16T18:22:25.053Z,53.49
2023-03-16T18:25:30.524Z,53.74
2023-03-16T18:28:34.823Z,53.76
2023-03-16T18:31:37.917Z,53.98
2023-03-16T18:34:42.186Z,54.15
2023-03-16T18:37:45.295Z,54.21
2023-03-16T18:40:48.583Z,54.42
2023-03-16T18:43:55.066Z,54.57
2023-03-16T18:47:02.973Z,54.62
2023-03-16T18:50:28.781Z,54.77
2023-03-16T18:53:32.799Z,54.84
2023-03-16T18:56:43.171Z,55.10
2023-03-16T18:59:47.899Z,55.15
2023-03-16T19:02:58.904Z,55.21
2023-03-16T19:06:02.206Z,55.28
2023-03-16T19:09:13.713Z,55.48
2023-03-16T19:12:18.322Z,55.59
2023-03-16T19:15:34.002Z,55.66
2023-03-16T19:18:45.846Z,55.84
2023-03-16T19:21:51.839Z,55.91
2023-03-16T19:24:56.115Z,56.02
2023-03-16T19:28:00.144Z,56.15
2023-03-16T19:31:20.457Z,56.24
2023-03-16T19:34:24.033Z,56.37
2023-03-16T19:37:30.080Z,56.50
2023-03-16T19:40:33.072Z,56.49
2023-03-16T19:43:36.191Z,56.60
2023-03-16T19:46:40.059Z,56.72
2023-03-16T19:49:43.051Z,56.80
2023-03-16T19:52:46.996Z,56.99
2023-03-16T19:55:52.317Z,57.11
2023-03-16T19:58:56.303Z,57.07
2023-03-16T20:02:00.150Z,57.07
2023-03-16T20:05:03.695Z,57.21
2023-03-16T20:08:28.010Z,57.29
2023-03-16T20:11:32.389Z,57.37
2023-03-16T20:14:35.458Z,57.55
2023-03-16T20:17:38.595Z,57.59
2023-03-16T20:20:43.350Z,57.66
2023-03-16T20:23:46.400Z,57.76
2023-03-16T20:26:51.445Z,57.81
2023-03-16T20:29:54.538Z,57.87
2023-03-16T20:32:57.724Z,57.91
2023-03-16T20:36:01.251Z,57.94
2023-03-16T20:39:04.357Z,57.88
2023-03-16T20:42:16.913Z,58.04
2023-03-16T20:45:26.183Z,58.06
2023-03-16T20:48:29.467Z,58.19
2023-03-16T20:51:32.863Z,58.20
2023-03-16T20:54:35.956Z,58.31
2023-03-16T20:57:40.200Z,58.37
2023-03-16T21:00:44.394Z,58.53
2023-03-16T21:03:58.628Z,58.58
2023-03-16T21:07:01.587Z,58.60
2023-03-16T21:10:05.068Z,58.76
2023-03-16T21:13:17.469Z,58.80
2023-03-16T21:16:21.820Z,58.81
2023-03-16T21:19:25.104Z,58.89
2023-03-16T21:22:31.274Z,58.93
2023-03-16T21:25:40.559Z,58.96
2023-03-16T21:28:46.524Z,59.08
2023-03-16T21:31:49.913Z,59.13
2023-03-16T21:34:54.665Z,59.20
2023-03-16T21:37:58.153Z,59.29
2023-03-16T21:41:01.273Z,59.39
2023-03-16T21:44:04.325Z,59.41
2023-03-16T21:47:26.213Z,59.48
2023-03-16T21:50:33.412Z,59.49
2023-03-16T21:53:36.440Z,59.49
2023-03-16T21:56:39.416Z,59.47
2023-03-16T21:59:42.523Z,59.54
2023-03-16T22:02:47.596Z,59.62
2023-03-16T22:05:51.180Z,59.68
2023-03-16T22:08:55.618Z,59.80
2023-03-16T22:11:58.642Z,59.89
2023-03-16T22:15:01.750Z,59.93
2023-03-16T22:18:08.802Z,60.04
2023-03-16T22:21:30.026Z,60.12
2023-03-16T22:24:35.834Z,60.16
2023-03-16T22:27:39.050Z,60.18
2023-03-16T22:30:42.934Z,60.18
2023-03-16T22:33:48.742Z,60.29
2023-03-16T22:36:52.155Z,60.27
2023-03-16T22:39:57.408Z,60.27
2023-03-16T22:43:04.546Z,60.20
2023-03-16T22:46:23.420Z,60.15
2023-03-16T22:49:28.598Z,60.15
2023-03-16T22:52:35.231Z,60.20
2023-03-16T22:55:40.332Z,60.17
2023-03-16T22:58:51.330Z,60.24
2023-03-16T23:01:54.416Z,60.23
2023-03-16T23:04:57.642Z,60.26
2023-03-16T23:08:02.655Z,60.22
2023-03-16T23:11:05.748Z,60.28
2023-03-16T23:14:23.684Z,60.36
2023-03-16T23:17:27.086Z,60.33
2023-03-16T23:20:33.558Z,60.37
2023-03-16T23:23:36.624Z,60.45
2023-03-16T23:26:39.720Z,60.47
2023-03-16T23:29:42.857Z,60.46
2023-03-16T23:32:45.952Z,60.48
2023-03-16T23:35:48.986Z,60.56
2023-03-16T23:38:52.237Z,60.67
2023-03-16T23:41:56.338Z,60.70
2023-03-16T23:45:07.760Z,60.70
2023-03-16T23:48:15.415Z,60.72
2023-03-16T23:51:25.814Z,60.74
2023-03-16T23:54:31.696Z,60.78
2023-03-16T23:57:34.739Z,60.80
